Cheshire, CT (06408)

6:34 PM EST on February 05, 2016 (GMT -0500)
Rogers Orchards Sunnymount Farm | | Change Station
CLOSE
Current Station
Personal Weather Station
Location: Southington, CT
Elevation: 666 ft
Nearby Weather Stations

Elev 666 ft 41.56 °N, 72.94 °W | Updated 56 seconds ago

Clear
Clear
31.7 °F
Feels Like 32 °F
N
2.0
Wind Variable Wind from WNW
Gusts 7.0 mph

Today
High -- | Low -- °F
--% Chance of Precip.
Yesterday
High -- | Low -- °F
Precip. -- in
Pressure 30.16 in
Visibility 10.0 miles
Clouds Clear
Windchill 32 °F
Dew Point 18 °F
Humidity 53%
Rainfall 0.00 in
Snow Depth Not available.
6:59 AM 5:12 PM
Waning Crescent, 9% visible
METAR KMMK 052253Z AUTO 32008KT 10SM CLR 01/M09 A3015 RMK AO2 SLP213 T00111094 TSNO
Pressure 30.16 in
Visibility 10.0 miles
Clouds Clear
Windchill 32 °F
Dew Point 18 °F
Humidity 53%
Rainfall 0.00 in
Snow Depth Not available.
6:59 AM 5:12 PM
Waning Crescent, 9% visible
METAR KMMK 052253Z AUTO 32008KT 10SM CLR 01/M09 A3015 RMK AO2 SLP213 T00111094 TSNO

10-Day Weather Forecast

Almanac

Astronomy

Feb. 05, 2016 Rise Set
Actual Time
Civil Twilight
Nautical Twilight
Astronomical Twilight
Moon
Length of Visible Light
Length of Day
Tomorrow will be .
, % of the Moon is Illuminated

Today's Extremes

State Highs State Lows

Community

WunderPhotos

Upload Photos

1,890,881 photos uploaded!

WunderBlog® & News

Nearby

Air Quality

  Air Quality AQ Index Pollutant
Not available.

Snow Depth

Station Depth Elevation

Earthquake Activity

City Distance Mag. Time & Date
Minimum magnitude displayed is 2.5.

Coastal Water Temperatures

Place Temperature

Stations

Nearby Weather Stations

Station Location Temp. Windchill Dew Point Humidity Wind Precip. Elev Updated Type
                   

Watches & Warnings

Special Statement
Issued: 2:51 PM EST Feb. 5, 2016 – National Weather Service

... Gusty winds will continue to bring down snow laden tree limbs
and power lines into early this evening...

The heavy wet snowfall... combined with moderate northerly winds
of 10 to 20 mph with gusts into the 30s... will continue to down
tree limbs and power lines into early this evening. Those
venturing out are urged to be cognizant of this dangerous and
potentially deadly hazard.



251 PM EST Fri Feb 5 2016

... Gusty winds will continue to bring down snow laden tree limbs
and power lines into early this evening...

The heavy wet snowfall... combined with moderate northerly winds
of 10 to 20 mph with gusts into the 30s... will continue to down
tree limbs and power lines into early this evening. Those
venturing out are urged to be cognizant of this dangerous and
potentially deadly hazard.